sensor_id;sensor_type;location;lat;lon;timestamp;pressure;altitude;pressure_sealevel;temperature;humidity
21838;BME280;11081;45.946;6.140;2022-08-11T00:02:30;95325.78;;;24.93;45.65
21838;BME280;11081;45.946;6.140;2022-08-11T00:05:04;95325.38;;;25.00;45.57
21838;BME280;11081;45.946;6.140;2022-08-11T00:07:40;95331.50;;;25.01;45.29
21838;BME280;11081;45.946;6.140;2022-08-11T00:10:10;95327.19;;;24.91;45.59
21838;BME280;11081;45.946;6.140;2022-08-11T00:12:39;95337.44;;;24.44;46.85
21838;BME280;11081;45.946;6.140;2022-08-11T00:15:11;95327.00;;;23.98;47.91
21838;BME280;11081;45.946;6.140;2022-08-11T00:17:39;95329.81;;;23.79;48.62
21838;BME280;11081;45.946;6.140;2022-08-11T00:20:11;95332.78;;;23.78;48.35
21838;BME280;11081;45.946;6.140;2022-08-11T00:22:44;95333.38;;;23.75;48.73
21838;BME280;11081;45.946;6.140;2022-08-11T00:25:16;95337.25;;;23.91;48.07
21838;BME280;11081;45.946;6.140;2022-08-11T00:27:46;95345.25;;;23.91;48.55
21838;BME280;11081;45.946;6.140;2022-08-11T00:30:16;95335.47;;;24.00;48.52
21838;BME280;11081;45.946;6.140;2022-08-11T00:32:52;95335.25;;;24.10;48.25
21838;BME280;11081;45.946;6.140;2022-08-11T00:35:25;95344.91;;;24.20;47.89
21838;BME280;11081;45.946;6.140;2022-08-11T00:38:15;95354.66;;;24.24;47.80
21838;BME280;11081;45.946;6.140;2022-08-11T00:40:50;95355.59;;;24.20;47.92
21838;BME280;11081;45.946;6.140;2022-08-11T00:43:24;95364.69;;;24.05;47.85
21838;BME280;11081;45.946;6.140;2022-08-11T00:46:13;95362.56;;;23.52;49.23
21838;BME280;11081;45.946;6.140;2022-08-11T00:48:49;95359.22;;;23.47;49.31
21838;BME280;11081;45.946;6.140;2022-08-11T00:51:24;95361.19;;;23.68;48.99
21838;BME280;11081;45.946;6.140;2022-08-11T00:54:35;95357.44;;;23.69;49.05
21838;BME280;11081;45.946;6.140;2022-08-11T00:57:33;95351.31;;;23.83;48.71
21838;BME280;11081;45.946;6.140;2022-08-11T01:00:12;95361.75;;;23.93;48.47
21838;BME280;11081;45.946;6.140;2022-08-11T01:03:04;95368.19;;;23.92;49.00
21838;BME280;11081;45.946;6.140;2022-08-11T01:05:55;95370.84;;;23.92;48.66
21838;BME280;11081;45.946;6.140;2022-08-11T01:11:54;95363.19;;;23.77;48.89
21838;BME280;11081;45.946;6.140;2022-08-11T01:14:49;95370.09;;;23.78;48.90
21838;BME280;11081;45.946;6.140;2022-08-11T01:21:02;95379.06;;;23.54;49.22
21838;BME280;11081;45.946;6.140;2022-08-11T01:27:14;95378.41;;;23.62;48.83
21838;BME280;11081;45.946;6.140;2022-08-11T01:30:13;95368.34;;;23.59;49.22
21838;BME280;11081;45.946;6.140;2022-08-11T01:33:11;95382.25;;;23.56;48.87
21838;BME280;11081;45.946;6.140;2022-08-11T01:45:31;95371.97;;;23.36;49.99
21838;BME280;11081;45.946;6.140;2022-08-11T01:48:08;95371.47;;;23.34;49.87
21838;BME280;11081;45.946;6.140;2022-08-11T01:51:02;95372.13;;;23.26;49.83
21838;BME280;11081;45.946;6.140;2022-08-11T01:53:41;95370.44;;;23.30;50.41
21838;BME280;11081;45.946;6.140;2022-08-11T01:56:27;95367.91;;;23.25;50.26
21838;BME280;11081;45.946;6.140;2022-08-11T01:59:09;95374.56;;;23.08;50.83
21838;BME280;11081;45.946;6.140;2022-08-11T02:01:52;95374.78;;;22.98;51.57
21838;BME280;11081;45.946;6.140;2022-08-11T02:04:30;95366.88;;;23.07;51.28
21838;BME280;11081;45.946;6.140;2022-08-11T02:07:03;95368.09;;;23.15;51.31
21838;BME280;11081;45.946;6.140;2022-08-11T02:09:49;95372.34;;;23.16;51.59
21838;BME280;11081;45.946;6.140;2022-08-11T02:12:38;95379.13;;;23.22;51.70
21838;BME280;11081;45.946;6.140;2022-08-11T02:15:25;95379.03;;;23.27;51.38
21838;BME280;11081;45.946;6.140;2022-08-11T02:18:04;95367.69;;;23.21;51.67
21838;BME280;11081;45.946;6.140;2022-08-11T02:20:38;95368.50;;;23.22;51.96
21838;BME280;11081;45.946;6.140;2022-08-11T02:23:30;95366.91;;;23.21;51.43
21838;BME280;11081;45.946;6.140;2022-08-11T02:26:38;95368.50;;;23.22;51.90
21838;BME280;11081;45.946;6.140;2022-08-11T02:29:15;95358.91;;;23.21;51.70
21838;BME280;11081;45.946;6.140;2022-08-11T02:31:53;95358.31;;;23.24;51.70
21838;BME280;11081;45.946;6.140;2022-08-11T02:35:04;95359.03;;;23.16;51.99
21838;BME280;11081;45.946;6.140;2022-08-11T02:37:45;95360.59;;;23.17;51.90
21838;BME280;11081;45.946;6.140;2022-08-11T02:40:22;95353.97;;;23.00;51.61
21838;BME280;11081;45.946;6.140;2022-08-11T02:43:03;95356.22;;;22.93;52.17
21838;BME280;11081;45.946;6.140;2022-08-11T02:45:41;95353.47;;;22.98;52.28
21838;BME280;11081;45.946;6.140;2022-08-11T02:48:20;95350.50;;;23.00;51.95
21838;BME280;11081;45.946;6.140;2022-08-11T02:51:16;95359.53;;;22.85;52.37
21838;BME280;11081;45.946;6.140;2022-08-11T02:53:53;95349.50;;;22.82;52.44
21838;BME280;11081;45.946;6.140;2022-08-11T02:56:34;95350.06;;;22.79;52.48
21838;BME280;11081;45.946;6.140;2022-08-11T02:59:06;95347.38;;;22.79;52.67
21838;BME280;11081;45.946;6.140;2022-08-11T03:01:58;95350.47;;;22.86;52.42
21838;BME280;11081;45.946;6.140;2022-08-11T03:04:37;95346.72;;;22.87;52.55
21838;BME280;11081;45.946;6.140;2022-08-11T03:07:22;95352.81;;;22.74;52.70
21838;BME280;11081;45.946;6.140;2022-08-11T03:10:03;95346.81;;;22.49;53.18
21838;BME280;11081;45.946;6.140;2022-08-11T03:15:47;95350.53;;;22.48;53.23
21838;BME280;11081;45.946;6.140;2022-08-11T03:18:36;95350.88;;;22.61;53.02
21838;BME280;11081;45.946;6.140;2022-08-11T03:21:12;95361.53;;;22.61;52.99
21838;BME280;11081;45.946;6.140;2022-08-11T03:23:52;95359.19;;;22.40;53.61
21838;BME280;11081;45.946;6.140;2022-08-11T03:26:27;95353.28;;;22.43;53.35
21838;BME280;11081;45.946;6.140;2022-08-11T03:29:05;95364.41;;;22.45;53.51
21838;BME280;11081;45.946;6.140;2022-08-11T03:31:43;95359.97;;;22.41;53.25
21838;BME280;11081;45.946;6.140;2022-08-11T03:34:16;95362.34;;;22.42;53.60
21838;BME280;11081;45.946;6.140;2022-08-11T03:36:58;95358.09;;;22.41;53.34
21838;BME280;11081;45.946;6.140;2022-08-11T03:39:56;95362.34;;;22.42;53.32
21838;BME280;11081;45.946;6.140;2022-08-11T03:42:32;95360.47;;;22.43;53.62
21838;BME280;11081;45.946;6.140;2022-08-11T03:45:20;95361.56;;;22.42;53.59
21838;BME280;11081;45.946;6.140;2022-08-11T03:48:04;95360.19;;;22.44;53.27
21838;BME280;11081;45.946;6.140;2022-08-11T03:50:54;95352.28;;;22.39;53.54
21838;BME280;11081;45.946;6.140;2022-08-11T03:53:38;95355.44;;;22.41;53.30
21838;BME280;11081;45.946;6.140;2022-08-11T03:59:30;95355.44;;;22.41;53.30
21838;BME280;11081;45.946;6.140;2022-08-11T04:02:25;95353.06;;;22.40;53.45
21838;BME280;11081;45.946;6.140;2022-08-11T04:05:31;95356.63;;;22.35;53.30
21838;BME280;11081;45.946;6.140;2022-08-11T04:08:38;95355.63;;;22.31;53.37
21838;BME280;11081;45.946;6.140;2022-08-11T04:11:39;95358.84;;;22.28;53.46
21838;BME280;11081;45.946;6.140;2022-08-11T04:14:37;95350.88;;;22.28;53.42
21838;BME280;11081;45.946;6.140;2022-08-11T04:17:54;95349.44;;;22.17;53.59
21838;BME280;11081;45.946;6.140;2022-08-11T04:20:42;95353.38;;;22.19;53.24
21838;BME280;11081;45.946;6.140;2022-08-11T04:23:28;95358.41;;;22.21;53.49
21838;BME280;11081;45.946;6.140;2022-08-11T04:26:49;95351.00;;;22.18;53.08
21838;BME280;11081;45.946;6.140;2022-08-11T04:29:38;95353.09;;;22.21;53.09
21838;BME280;11081;45.946;6.140;2022-08-11T04:32:56;95354.25;;;22.15;53.29
21838;BME280;11081;45.946;6.140;2022-08-11T04:35:38;95353.09;;;22.21;53.41
21838;BME280;11081;45.946;6.140;2022-08-11T04:38:41;95356.41;;;22.13;53.61
21838;BME280;11081;45.946;6.140;2022-08-11T04:41:52;95365.53;;;22.07;53.80
21838;BME280;11081;45.946;6.140;2022-08-11T04:45:07;95369.50;;;21.85;54.05
21838;BME280;11081;45.946;6.140;2022-08-11T04:47:53;95362.06;;;21.87;54.35
21838;BME280;11081;45.946;6.140;2022-08-11T04:51:07;95364.66;;;21.92;54.26
21838;BME280;11081;45.946;6.140;2022-08-11T04:54:04;95373.69;;;21.91;54.06
21838;BME280;11081;45.946;6.140;2022-08-11T04:57:01;95373.47;;;21.88;54.14
21838;BME280;11081;45.946;6.140;2022-08-11T05:00:04;95375.28;;;21.92;54.50
21838;BME280;11081;45.946;6.140;2022-08-11T05:03:34;95382.09;;;21.99;54.52
21838;BME280;11081;45.946;6.140;2022-08-11T05:15:02;95385.75;;;22.03;54.00
21838;BME280;11081;45.946;6.140;2022-08-11T05:17:57;95385.22;;;22.06;53.83
21838;BME280;11081;45.946;6.140;2022-08-11T05:20:49;95382.03;;;22.04;53.69
21838;BME280;11081;45.946;6.140;2022-08-11T05:23:39;95390.53;;;22.06;53.62
21838;BME280;11081;45.946;6.140;2022-08-11T05:26:28;95390.53;;;22.06;54.02
21838;BME280;11081;45.946;6.140;2022-08-11T05:29:38;95390.00;;;21.61;55.42
21838;BME280;11081;45.946;6.140;2022-08-11T05:32:29;95390.59;;;21.58;55.60
21838;BME280;11081;45.946;6.140;2022-08-11T05:35:28;95388.00;;;21.53;55.78
21838;BME280;11081;45.946;6.140;2022-08-11T05:38:21;95402.28;;;21.57;55.84
21838;BME280;11081;45.946;6.140;2022-08-11T05:41:10;95397.81;;;21.76;55.25
21838;BME280;11081;45.946;6.140;2022-08-11T05:43:58;95397.69;;;21.86;54.99
21838;BME280;11081;45.946;6.140;2022-08-11T05:46:49;95394.81;;;22.02;54.79
21838;BME280;11081;45.946;6.140;2022-08-11T05:49:36;95392.66;;;22.04;54.54
21838;BME280;11081;45.946;6.140;2022-08-11T05:52:25;95391.06;;;22.08;54.23
21838;BME280;11081;45.946;6.140;2022-08-11T05:55:15;95397.31;;;22.17;54.39
21838;BME280;11081;45.946;6.140;2022-08-11T05:58:18;95398.88;;;22.18;54.95
21838;BME280;11081;45.946;6.140;2022-08-11T06:00:46;95397.50;;;22.20;54.79
21838;BME280;11081;45.946;6.140;2022-08-11T06:03:25;95397.72;;;22.24;55.26
21838;BME280;11081;45.946;6.140;2022-08-11T06:05:55;95404.19;;;22.18;54.86
21838;BME280;11081;45.946;6.140;2022-08-11T06:08:29;95398.88;;;22.18;54.81
21838;BME280;11081;45.946;6.140;2022-08-11T06:11:03;95404.56;;;22.11;54.58
21838;BME280;11081;45.946;6.140;2022-08-11T06:13:32;95402.63;;;22.17;54.64
21838;BME280;11081;45.946;6.140;2022-08-11T06:16:01;95401.25;;;22.38;53.70
21838;BME280;11081;45.946;6.140;2022-08-11T06:18:35;95402.63;;;22.55;53.61
21838;BME280;11081;45.946;6.140;2022-08-11T06:21:08;95404.03;;;22.66;52.94
21838;BME280;11081;45.946;6.140;2022-08-11T06:23:38;95399.00;;;22.83;52.74
21838;BME280;11081;45.946;6.140;2022-08-11T06:26:08;95398.84;;;22.93;52.66
21838;BME280;11081;45.946;6.140;2022-08-11T06:28:38;95398.25;;;22.96;52.84
21838;BME280;11081;45.946;6.140;2022-08-11T06:31:11;95391.25;;;23.00;52.97
21838;BME280;11081;45.946;6.140;2022-08-11T06:33:53;95392.13;;;23.09;52.61
21838;BME280;11081;45.946;6.140;2022-08-11T06:36:28;95396.38;;;23.10;52.78
21838;BME280;11081;45.946;6.140;2022-08-11T06:39:08;95394.31;;;23.07;52.98
21838;BME280;11081;45.946;6.140;2022-08-11T06:41:45;95400.72;;;23.06;53.21
21838;BME280;11081;45.946;6.140;2022-08-11T06:44:22;95395.88;;;23.08;54.01
21838;BME280;11081;45.946;6.140;2022-08-11T06:46:51;95392.72;;;23.06;53.39
21838;BME280;11081;45.946;6.140;2022-08-11T06:49:31;95391.25;;;23.00;54.02
21838;BME280;11081;45.946;6.140;2022-08-11T06:52:28;95390.75;;;22.98;53.94
21838;BME280;11081;45.946;6.140;2022-08-11T06:55:05;95394.50;;;23.11;52.97
21838;BME280;11081;45.946;6.140;2022-08-11T06:57:54;95384.28;;;23.32;52.81
21838;BME280;11081;45.946;6.140;2022-08-11T07:00:40;95389.13;;;23.43;51.84
21838;BME280;11081;45.946;6.140;2022-08-11T07:03:11;95394.53;;;23.52;50.83
21838;BME280;11081;45.946;6.140;2022-08-11T07:05:47;95382.31;;;23.51;50.35
21838;BME280;11081;45.946;6.140;2022-08-11T07:09:01;95380.72;;;23.50;51.18
21838;BME280;11081;45.946;6.140;2022-08-11T07:15:01;95386.69;;;23.75;50.23
21838;BME280;11081;45.946;6.140;2022-08-11T07:17:50;95388.66;;;23.55;50.86
21838;BME280;11081;45.946;6.140;2022-08-11T07:20:43;95377.34;;;23.31;51.19
21838;BME280;11081;45.946;6.140;2022-08-11T07:23:30;95377.78;;;23.38;51.43
21838;BME280;11081;45.946;6.140;2022-08-11T07:26:20;95380.34;;;23.70;50.40
21838;BME280;11081;45.946;6.140;2022-08-11T07:29:10;95376.41;;;23.82;50.44
21838;BME280;11081;45.946;6.140;2022-08-11T07:31:42;95374.00;;;23.94;49.86
21838;BME280;11081;45.946;6.140;2022-08-11T07:34:20;95369.66;;;23.98;50.57
21838;BME280;11081;45.946;6.140;2022-08-11T07:36:53;95370.53;;;24.07;50.59
21838;BME280;11081;45.946;6.140;2022-08-11T07:39:23;95370.38;;;24.26;50.01
21838;BME280;11081;45.946;6.140;2022-08-11T07:41:54;95364.16;;;24.53;48.96
21838;BME280;11081;45.946;6.140;2022-08-11T07:44:24;95364.91;;;24.67;48.95
21838;BME280;11081;45.946;6.140;2022-08-11T07:47:00;95365.50;;;24.64;48.63
21838;BME280;11081;45.946;6.140;2022-08-11T07:49:47;95366.47;;;24.68;48.83
21838;BME280;11081;45.946;6.140;2022-08-11T07:52:36;95363.31;;;24.66;48.97
21838;BME280;11081;45.946;6.140;2022-08-11T07:55:11;95364.41;;;24.87;48.24
21838;BME280;11081;45.946;6.140;2022-08-11T07:57:40;95363.16;;;24.93;48.03
21838;BME280;11081;45.946;6.140;2022-08-11T08:00:48;95356.38;;;24.87;48.24
21838;BME280;11081;45.946;6.140;2022-08-11T08:03:42;95361.22;;;24.99;47.64
21838;BME280;11081;45.946;6.140;2022-08-11T08:06:31;95356.72;;;25.17;47.80
21838;BME280;11081;45.946;6.140;2022-08-11T08:09:20;95359.94;;;25.36;47.37
21838;BME280;11081;45.946;6.140;2022-08-11T08:12:07;95355.06;;;25.38;47.07
21838;BME280;11081;45.946;6.140;2022-08-11T08:14:54;95360.00;;;25.53;46.99
21838;BME280;11081;45.946;6.140;2022-08-11T08:17:41;95356.59;;;25.62;46.62
21838;BME280;11081;45.946;6.140;2022-08-11T08:20:39;95353.41;;;25.60;46.92
21838;BME280;11081;45.946;6.140;2022-08-11T08:23:11;95359.09;;;25.67;46.31
21838;BME280;11081;45.946;6.140;2022-08-11T08:25:43;95350.72;;;25.60;46.38
21838;BME280;11081;45.946;6.140;2022-08-11T08:28:14;95350.25;;;25.58;46.84
21838;BME280;11081;45.946;6.140;2022-08-11T08:30:44;95348.13;;;25.77;46.58
21838;BME280;11081;45.946;6.140;2022-08-11T08:33:17;95345.94;;;25.79;46.30
21838;BME280;11081;45.946;6.140;2022-08-11T08:35:47;95343.69;;;25.64;46.71
21838;BME280;11081;45.946;6.140;2022-08-11T08:38:21;95351.81;;;25.59;46.73
21838;BME280;11081;45.946;6.140;2022-08-11T08:40:52;95347.81;;;25.70;46.29
21838;BME280;11081;45.946;6.140;2022-08-11T08:43:23;95346.56;;;25.76;46.12
21838;BME280;11081;45.946;6.140;2022-08-11T08:45:54;95344.69;;;25.85;45.56
21838;BME280;11081;45.946;6.140;2022-08-11T08:48:24;95341.25;;;25.93;45.47
21838;BME280;11081;45.946;6.140;2022-08-11T08:50:55;95340.59;;;25.96;45.61
21838;BME280;11081;45.946;6.140;2022-08-11T08:53:46;95344.69;;;26.02;45.04
21838;BME280;11081;45.946;6.140;2022-08-11T08:56:26;95345.97;;;26.13;44.99
21838;BME280;11081;45.946;6.140;2022-08-11T08:58:58;95343.13;;;26.19;44.68
21838;BME280;11081;45.946;6.140;2022-08-11T09:01:29;95335.63;;;26.38;44.53
21838;BME280;11081;45.946;6.140;2022-08-11T09:03:58;95339.88;;;26.39;44.23
21838;BME280;11081;45.946;6.140;2022-08-11T09:06:36;95337.50;;;26.46;43.99
21838;BME280;11081;45.946;6.140;2022-08-11T09:09:07;95341.91;;;26.42;44.27
21838;BME280;11081;45.946;6.140;2022-08-11T09:11:39;95345.53;;;26.55;44.16
21838;BME280;11081;45.946;6.140;2022-08-11T09:14:20;95342.81;;;26.63;43.82
21838;BME280;11081;45.946;6.140;2022-08-11T09:16:49;95342.81;;;26.63;43.36
21838;BME280;11081;45.946;6.140;2022-08-11T09:19:20;95348.97;;;26.64;43.44
21838;BME280;11081;45.946;6.140;2022-08-11T09:21:49;95337.16;;;26.56;42.78
21838;BME280;11081;45.946;6.140;2022-08-11T09:24:39;95337.50;;;26.46;42.48
21838;BME280;11081;45.946;6.140;2022-08-11T09:27:26;95338.44;;;26.67;42.72
21838;BME280;11081;45.946;6.140;2022-08-11T09:29:55;95339.31;;;26.89;42.58
21838;BME280;11081;45.946;6.140;2022-08-11T09:32:23;95334.09;;;27.01;42.05
21838;BME280;11081;45.946;6.140;2022-08-11T09:34:52;95338.66;;;27.09;41.67
21838;BME280;11081;45.946;6.140;2022-08-11T09:37:21;95334.22;;;27.13;41.79
21838;BME280;11081;45.946;6.140;2022-08-11T09:40:22;95327.63;;;27.02;41.42
21838;BME280;11081;45.946;6.140;2022-08-11T09:43:02;95322.59;;;27.09;40.99
21838;BME280;11081;45.946;6.140;2022-08-11T09:45:50;95324.72;;;27.24;40.99
21838;BME280;11081;45.946;6.140;2022-08-11T09:48:19;95327.38;;;27.33;40.85
21838;BME280;11081;45.946;6.140;2022-08-11T09:50:49;95320.19;;;27.46;39.98
21838;BME280;11081;45.946;6.140;2022-08-11T09:53:18;95323.97;;;27.45;40.02
21838;BME280;11081;45.946;6.140;2022-08-11T09:56:10;95321.41;;;27.57;40.07
21838;BME280;11081;45.946;6.140;2022-08-11T09:58:57;95315.06;;;27.70;39.89
21838;BME280;11081;45.946;6.140;2022-08-11T10:01:31;95314.06;;;27.75;38.74
21838;BME280;11081;45.946;6.140;2022-08-11T10:04:05;95310.00;;;27.89;38.75
21838;BME280;11081;45.946;6.140;2022-08-11T10:06:36;95304.28;;;28.00;38.67
21838;BME280;11081;45.946;6.140;2022-08-11T10:09:24;95302.28;;;28.09;38.49
21838;BME280;11081;45.946;6.140;2022-08-11T10:11:56;95307.72;;;28.21;38.65
21838;BME280;11081;45.946;6.140;2022-08-11T10:14:27;95290.97;;;28.24;38.18
21838;BME280;11081;45.946;6.140;2022-08-11T10:17:17;95296.09;;;28.17;38.28
21838;BME280;11081;45.946;6.140;2022-08-11T10:19:47;95294.63;;;28.19;38.67
21838;BME280;11081;45.946;6.140;2022-08-11T10:22:33;95288.88;;;28.30;38.19
21838;BME280;11081;45.946;6.140;2022-08-11T10:25:19;95286.59;;;28.40;37.97
21838;BME280;11081;45.946;6.140;2022-08-11T10:28:07;95277.84;;;28.43;38.22
21838;BME280;11081;45.946;6.140;2022-08-11T10:30:58;95278.75;;;28.47;37.27
21838;BME280;11081;45.946;6.140;2022-08-11T10:34:13;95281.78;;;28.46;37.06
21838;BME280;11081;45.946;6.140;2022-08-11T10:36:45;95276.97;;;28.51;37.11
21838;BME280;11081;45.946;6.140;2022-08-11T10:39:16;95269.84;;;28.56;36.82
21838;BME280;11081;45.946;6.140;2022-08-11T10:41:46;95263.81;;;28.71;36.20
21838;BME280;11081;45.946;6.140;2022-08-11T10:45:05;95265.75;;;28.82;35.83
21838;BME280;11081;45.946;6.140;2022-08-11T10:47:56;95262.53;;;28.89;35.52
21838;BME280;11081;45.946;6.140;2022-08-11T10:50:24;95256.47;;;28.92;34.90
21838;BME280;11081;45.946;6.140;2022-08-11T10:53:11;95263.69;;;29.00;34.87
21838;BME280;11081;45.946;6.140;2022-08-11T10:55:58;95255.94;;;28.99;34.87
21838;BME280;11081;45.946;6.140;2022-08-11T10:58:44;95254.72;;;29.08;34.72
21838;BME280;11081;45.946;6.140;2022-08-11T11:01:17;95251.69;;;29.22;34.80
21838;BME280;11081;45.946;6.140;2022-08-11T11:03:54;95253.38;;;29.27;32.77
21838;BME280;11081;45.946;6.140;2022-08-11T11:06:28;95252.47;;;29.35;32.12
21838;BME280;11081;45.946;6.140;2022-08-11T11:09:02;95248.88;;;29.31;31.83
21838;BME280;11081;45.946;6.140;2022-08-11T11:11:35;95249.56;;;29.40;32.03
21838;BME280;11081;45.946;6.140;2022-08-11T11:14:24;95248.44;;;29.53;32.50
21838;BME280;11081;45.946;6.140;2022-08-11T11:17:29;95241.13;;;29.66;32.85
21838;BME280;11081;45.946;6.140;2022-08-11T11:20:21;95247.75;;;29.68;33.07
21838;BME280;11081;45.946;6.140;2022-08-11T11:23:07;95245.16;;;29.72;32.83
21838;BME280;11081;45.946;6.140;2022-08-11T11:26:07;95238.09;;;29.80;32.54
21838;BME280;11081;45.946;6.140;2022-08-11T11:29:06;95241.84;;;29.91;33.09
21838;BME280;11081;45.946;6.140;2022-08-11T11:34:49;95231.84;;;29.91;32.89
21838;BME280;11081;45.946;6.140;2022-08-11T11:37:29;95230.59;;;30.01;32.67
21838;BME280;11081;45.946;6.140;2022-08-11T11:39:59;95235.88;;;29.97;33.31
21838;BME280;11081;45.946;6.140;2022-08-11T11:42:28;95225.44;;;30.08;32.99
21838;BME280;11081;45.946;6.140;2022-08-11T11:44:57;95218.94;;;30.09;32.76
21838;BME280;11081;45.946;6.140;2022-08-11T11:47:27;95218.88;;;30.21;32.46
21838;BME280;11081;45.946;6.140;2022-08-11T11:49:57;95214.53;;;30.32;33.22
21838;BME280;11081;45.946;6.140;2022-08-11T11:52:27;95218.75;;;30.46;32.67
21838;BME280;11081;45.946;6.140;2022-08-11T11:54:56;95203.28;;;30.43;32.44
21838;BME280;11081;45.946;6.140;2022-08-11T11:57:26;95203.75;;;30.32;32.61
21838;BME280;11081;45.946;6.140;2022-08-11T12:00:25;95195.06;;;30.23;31.88
21838;BME280;11081;45.946;6.140;2022-08-11T12:03:12;95187.00;;;30.39;31.82
21838;BME280;11081;45.946;6.140;2022-08-11T12:05:41;95201.03;;;30.45;31.24
21838;BME280;11081;45.946;6.140;2022-08-11T12:08:11;95197.97;;;30.46;30.53
21838;BME280;11081;45.946;6.140;2022-08-11T12:10:45;95192.13;;;30.60;30.25
21838;BME280;11081;45.946;6.140;2022-08-11T12:13:14;95201.06;;;30.76;29.63
21838;BME280;11081;45.946;6.140;2022-08-11T12:16:01;95193.41;;;30.78;29.12
21838;BME280;11081;45.946;6.140;2022-08-11T12:18:53;95194.00;;;30.72;28.66
21838;BME280;11081;45.946;6.140;2022-08-11T12:21:22;95187.69;;;30.64;28.94
21838;BME280;11081;45.946;6.140;2022-08-11T12:23:54;95198.78;;;30.78;29.17
21838;BME280;11081;45.946;6.140;2022-08-11T12:26:40;95194.59;;;30.97;28.94
21838;BME280;11081;45.946;6.140;2022-08-11T12:29:43;95193.75;;;30.92;28.75
21838;BME280;11081;45.946;6.140;2022-08-11T12:32:21;95180.53;;;30.87;28.62
21838;BME280;11081;45.946;6.140;2022-08-11T12:34:50;95185.94;;;30.87;28.61
21838;BME280;11081;45.946;6.140;2022-08-11T12:37:21;95179.84;;;30.90;28.48
21838;BME280;11081;45.946;6.140;2022-08-11T12:40:12;95183.81;;;30.97;28.38
21838;BME280;11081;45.946;6.140;2022-08-11T12:43:20;95174.94;;;31.12;28.70
21838;BME280;11081;45.946;6.140;2022-08-11T12:46:08;95178.41;;;31.28;29.11
21838;BME280;11081;45.946;6.140;2022-08-11T12:48:42;95180.34;;;31.47;28.47
21838;BME280;11081;45.946;6.140;2022-08-11T12:51:35;95178.56;;;31.35;27.95
21838;BME280;11081;45.946;6.140;2022-08-11T12:54:52;95171.44;;;31.27;28.56
21838;BME280;11081;45.946;6.140;2022-08-11T12:57:29;95166.06;;;31.27;28.63
21838;BME280;11081;45.946;6.140;2022-08-11T13:00:17;95155.84;;;31.36;29.29
21838;BME280;11081;45.946;6.140;2022-08-11T13:03:06;95158.13;;;31.53;29.41
21838;BME280;11081;45.946;6.140;2022-08-11T13:05:53;95157.16;;;31.81;29.18
21838;BME280;11081;45.946;6.140;2022-08-11T13:08:23;95152.03;;;31.76;27.97
21838;BME280;11081;45.946;6.140;2022-08-11T13:10:52;95151.75;;;31.81;27.74
21838;BME280;11081;45.946;6.140;2022-08-11T13:13:40;95157.94;;;31.81;27.73
21838;BME280;11081;45.946;6.140;2022-08-11T13:16:25;95149.63;;;31.90;27.85
21838;BME280;11081;45.946;6.140;2022-08-11T13:18:54;95150.75;;;32.08;27.82
21838;BME280;11081;45.946;6.140;2022-08-11T13:21:23;95137.78;;;32.18;27.40
21838;BME280;11081;45.946;6.140;2022-08-11T13:23:52;95138.06;;;32.32;28.13
21838;BME280;11081;45.946;6.140;2022-08-11T13:26:32;95136.72;;;32.45;27.45
21838;BME280;11081;45.946;6.140;2022-08-11T13:29:18;95133.75;;;32.50;27.02
21838;BME280;11081;45.946;6.140;2022-08-11T13:31:47;95134.66;;;32.35;26.75
21838;BME280;11081;45.946;6.140;2022-08-11T13:34:15;95122.78;;;32.43;26.88
21838;BME280;11081;45.946;6.140;2022-08-11T13:36:47;95126.88;;;32.56;27.95
21838;BME280;11081;45.946;6.140;2022-08-11T13:39:16;95121.09;;;32.81;27.35
21838;BME280;11081;45.946;6.140;2022-08-11T13:41:47;95121.34;;;32.95;27.23
21838;BME280;11081;45.946;6.140;2022-08-11T13:44:17;95113.59;;;32.93;26.89
21838;BME280;11081;45.946;6.140;2022-08-11T13:46:52;95102.47;;;32.75;27.41
21838;BME280;11081;45.946;6.140;2022-08-11T13:49:21;95104.19;;;32.87;27.08
21838;BME280;11081;45.946;6.140;2022-08-11T13:51:51;95102.91;;;33.04;27.02
21838;BME280;11081;45.946;6.140;2022-08-11T13:54:22;95097.41;;;32.97;25.57
21838;BME280;11081;45.946;6.140;2022-08-11T13:56:53;95100.84;;;32.94;26.29
21838;BME280;11081;45.946;6.140;2022-08-11T13:59:24;95098.44;;;32.66;26.18
21838;BME280;11081;45.946;6.140;2022-08-11T14:01:58;95094.53;;;32.63;26.56
21838;BME280;11081;45.946;6.140;2022-08-11T14:04:54;95082.63;;;32.91;26.21
21838;BME280;11081;45.946;6.140;2022-08-11T14:07:24;95084.28;;;32.99;26.30
21838;BME280;11081;45.946;6.140;2022-08-11T14:09:56;95086.25;;;33.02;25.98
21838;BME280;11081;45.946;6.140;2022-08-11T14:12:26;95076.03;;;33.18;25.54
21838;BME280;11081;45.946;6.140;2022-08-11T14:15:19;95077.50;;;33.12;25.22
21838;BME280;11081;45.946;6.140;2022-08-11T14:17:51;95077.09;;;32.84;25.12
21838;BME280;11081;45.946;6.140;2022-08-11T14:20:22;95075.41;;;32.75;26.12
21838;BME280;11081;45.946;6.140;2022-08-11T14:23:07;95074.16;;;32.92;26.35
21838;BME280;11081;45.946;6.140;2022-08-11T14:25:38;95072.53;;;33.18;26.18
21838;BME280;11081;45.946;6.140;2022-08-11T14:28:29;95065.66;;;33.54;26.18
21838;BME280;11081;45.946;6.140;2022-08-11T14:31:09;95068.50;;;33.68;25.32
21838;BME280;11081;45.946;6.140;2022-08-11T14:33:38;95060.72;;;33.63;24.86
21838;BME280;11081;45.946;6.140;2022-08-11T14:36:29;95053.94;;;33.80;25.93
21838;BME280;11081;45.946;6.140;2022-08-11T14:39:00;95056.22;;;34.15;25.33
21838;BME280;11081;45.946;6.140;2022-08-11T14:41:30;95060.94;;;34.21;24.58
21838;BME280;11081;45.946;6.140;2022-08-11T14:44:36;95052.44;;;34.23;24.66
21838;BME280;11081;45.946;6.140;2022-08-11T14:47:26;95056.16;;;34.52;24.62
21838;BME280;11081;45.946;6.140;2022-08-11T14:49:56;95044.03;;;34.35;23.39
21838;BME280;11081;45.946;6.140;2022-08-11T14:52:38;95046.06;;;34.05;24.85
21838;BME280;11081;45.946;6.140;2022-08-11T14:55:11;95040.88;;;34.33;24.59
21838;BME280;11081;45.946;6.140;2022-08-11T14:57:57;95044.63;;;34.59;24.89
21838;BME280;11081;45.946;6.140;2022-08-11T15:00:27;95038.81;;;34.64;22.52